sensor_id;sensor_type;location;lat;lon;timestamp;P1;durP1;ratioP1;P2;durP2;ratioP2
41923;SDS011;27613;48.116;11.656;2022-07-10T00:00:46;3.10;;;1.77;;
41923;SDS011;27613;48.116;11.656;2022-07-10T00:03:12;4.50;;;2.10;;
41923;SDS011;27613;48.116;11.656;2022-07-10T00:05:38;4.03;;;2.15;;
41923;SDS011;27613;48.116;11.656;2022-07-10T00:08:04;3.47;;;1.90;;
41923;SDS011;27613;48.116;11.656;2022-07-10T00:10:29;3.17;;;1.70;;
41923;SDS011;27613;48.116;11.656;2022-07-10T00:12:55;7.88;;;1.95;;
41923;SDS011;27613;48.116;11.656;2022-07-10T00:15:21;3.45;;;1.83;;
41923;SDS011;27613;48.116;11.656;2022-07-10T00:17:47;4.07;;;2.03;;
41923;SDS011;27613;48.116;11.656;2022-07-10T00:20:13;2.97;;;1.80;;
41923;SDS011;27613;48.116;11.656;2022-07-10T00:22:39;3.78;;;2.03;;
41923;SDS011;27613;48.116;11.656;2022-07-10T00:25:06;4.95;;;2.03;;
41923;SDS011;27613;48.116;11.656;2022-07-10T00:27:34;4.18;;;1.92;;
41923;SDS011;27613;48.116;11.656;2022-07-10T00:29:59;4.20;;;1.90;;
41923;SDS011;27613;48.116;11.656;2022-07-10T00:32:26;5.90;;;2.42;;
41923;SDS011;27613;48.116;11.656;2022-07-10T00:34:52;4.80;;;2.10;;
41923;SDS011;27613;48.116;11.656;2022-07-10T00:37:17;3.25;;;1.90;;
41923;SDS011;27613;48.116;11.656;2022-07-10T00:39:46;5.35;;;2.30;;
41923;SDS011;27613;48.116;11.656;2022-07-10T00:42:12;3.60;;;2.28;;
41923;SDS011;27613;48.116;11.656;2022-07-10T00:44:39;3.60;;;2.25;;
41923;SDS011;27613;48.116;11.656;2022-07-10T00:47:09;6.25;;;2.70;;
41923;SDS011;27613;48.116;11.656;2022-07-10T00:49:36;5.63;;;2.53;;
41923;SDS011;27613;48.116;11.656;2022-07-10T00:52:05;5.18;;;2.78;;
41923;SDS011;27613;48.116;11.656;2022-07-10T00:54:33;4.57;;;2.70;;
41923;SDS011;27613;48.116;11.656;2022-07-10T00:56:59;8.05;;;3.25;;
41923;SDS011;27613;48.116;11.656;2022-07-10T00:59:28;4.30;;;2.78;;
41923;SDS011;27613;48.116;11.656;2022-07-10T01:01:54;5.38;;;2.97;;
41923;SDS011;27613;48.116;11.656;2022-07-10T01:04:20;3.83;;;2.97;;
41923;SDS011;27613;48.116;11.656;2022-07-10T01:06:46;3.60;;;2.60;;
41923;SDS011;27613;48.116;11.656;2022-07-10T01:09:11;8.02;;;3.70;;
41923;SDS011;27613;48.116;11.656;2022-07-10T01:11:37;3.53;;;2.67;;
41923;SDS011;27613;48.116;11.656;2022-07-10T01:14:03;5.78;;;2.80;;
41923;SDS011;27613;48.116;11.656;2022-07-10T01:16:30;4.18;;;2.42;;
41923;SDS011;27613;48.116;11.656;2022-07-10T01:18:56;6.95;;;3.08;;
41923;SDS011;27613;48.116;11.656;2022-07-10T01:21:23;5.57;;;2.80;;
41923;SDS011;27613;48.116;11.656;2022-07-10T01:23:50;3.80;;;2.58;;
41923;SDS011;27613;48.116;11.656;2022-07-10T01:26:16;4.85;;;2.95;;
41923;SDS011;27613;48.116;11.656;2022-07-10T01:28:42;4.57;;;3.17;;
41923;SDS011;27613;48.116;11.656;2022-07-10T01:31:08;3.80;;;2.67;;
41923;SDS011;27613;48.116;11.656;2022-07-10T01:33:34;4.50;;;2.92;;
41923;SDS011;27613;48.116;11.656;2022-07-10T01:35:59;4.07;;;3.00;;
41923;SDS011;27613;48.116;11.656;2022-07-10T01:38:25;4.15;;;3.35;;
41923;SDS011;27613;48.116;11.656;2022-07-10T01:40:50;4.10;;;3.13;;
41923;SDS011;27613;48.116;11.656;2022-07-10T01:43:16;4.60;;;3.08;;
41923;SDS011;27613;48.116;11.656;2022-07-10T01:45:41;4.25;;;2.85;;
41923;SDS011;27613;48.116;11.656;2022-07-10T01:48:08;4.00;;;3.08;;
41923;SDS011;27613;48.116;11.656;2022-07-10T01:50:34;6.80;;;3.33;;
41923;SDS011;27613;48.116;11.656;2022-07-10T01:52:59;4.90;;;2.88;;
41923;SDS011;27613;48.116;11.656;2022-07-10T01:55:25;5.43;;;3.10;;
41923;SDS011;27613;48.116;11.656;2022-07-10T01:57:50;4.70;;;2.88;;
41923;SDS011;27613;48.116;11.656;2022-07-10T02:00:16;5.32;;;3.15;;
41923;SDS011;27613;48.116;11.656;2022-07-10T02:02:42;4.10;;;3.13;;
41923;SDS011;27613;48.116;11.656;2022-07-10T02:05:27;4.07;;;2.97;;
41923;SDS011;27613;48.116;11.656;2022-07-10T02:07:53;4.47;;;2.95;;
41923;SDS011;27613;48.116;11.656;2022-07-10T02:10:19;5.32;;;3.33;;
41923;SDS011;27613;48.116;11.656;2022-07-10T02:12:44;6.20;;;3.40;;
41923;SDS011;27613;48.116;11.656;2022-07-10T02:15:10;7.78;;;2.67;;
41923;SDS011;27613;48.116;11.656;2022-07-10T02:17:35;10.45;;;3.17;;
41923;SDS011;27613;48.116;11.656;2022-07-10T02:20:01;5.43;;;3.40;;
41923;SDS011;27613;48.116;11.656;2022-07-10T02:22:27;5.40;;;3.03;;
41923;SDS011;27613;48.116;11.656;2022-07-10T02:24:52;5.25;;;3.80;;
41923;SDS011;27613;48.116;11.656;2022-07-10T02:27:18;5.35;;;3.17;;
41923;SDS011;27613;48.116;11.656;2022-07-10T02:29:43;4.07;;;2.95;;
41923;SDS011;27613;48.116;11.656;2022-07-10T02:32:09;3.95;;;2.85;;
41923;SDS011;27613;48.116;11.656;2022-07-10T02:34:34;4.53;;;3.22;;
41923;SDS011;27613;48.116;11.656;2022-07-10T02:37:00;4.35;;;3.15;;
41923;SDS011;27613;48.116;11.656;2022-07-10T02:39:25;3.47;;;2.90;;
41923;SDS011;27613;48.116;11.656;2022-07-10T02:41:51;4.22;;;3.10;;
41923;SDS011;27613;48.116;11.656;2022-07-10T02:44:17;4.25;;;3.38;;
41923;SDS011;27613;48.116;11.656;2022-07-10T02:46:42;5.18;;;3.70;;
41923;SDS011;27613;48.116;11.656;2022-07-10T02:49:08;4.28;;;3.28;;
41923;SDS011;27613;48.116;11.656;2022-07-10T02:51:33;4.68;;;3.33;;
41923;SDS011;27613;48.116;11.656;2022-07-10T02:53:59;4.05;;;3.22;;
41923;SDS011;27613;48.116;11.656;2022-07-10T02:56:24;4.97;;;3.60;;
41923;SDS011;27613;48.116;11.656;2022-07-10T02:58:50;5.97;;;3.80;;
41923;SDS011;27613;48.116;11.656;2022-07-10T03:01:16;5.05;;;3.60;;
41923;SDS011;27613;48.116;11.656;2022-07-10T03:03:41;4.65;;;3.75;;
41923;SDS011;27613;48.116;11.656;2022-07-10T03:06:07;5.20;;;3.65;;
41923;SDS011;27613;48.116;11.656;2022-07-10T03:08:32;6.40;;;3.72;;
41923;SDS011;27613;48.116;11.656;2022-07-10T03:10:58;5.70;;;3.88;;
41923;SDS011;27613;48.116;11.656;2022-07-10T03:13:24;7.50;;;4.03;;
41923;SDS011;27613;48.116;11.656;2022-07-10T03:15:49;6.70;;;4.22;;
41923;SDS011;27613;48.116;11.656;2022-07-10T03:18:18;4.97;;;4.00;;
41923;SDS011;27613;48.116;11.656;2022-07-10T03:20:43;4.45;;;3.80;;
41923;SDS011;27613;48.116;11.656;2022-07-10T03:23:09;5.22;;;3.88;;
41923;SDS011;27613;48.116;11.656;2022-07-10T03:25:34;7.93;;;4.45;;
41923;SDS011;27613;48.116;11.656;2022-07-10T03:28:00;4.68;;;3.60;;
41923;SDS011;27613;48.116;11.656;2022-07-10T03:30:25;5.30;;;3.55;;
41923;SDS011;27613;48.116;11.656;2022-07-10T03:32:51;4.78;;;3.83;;
41923;SDS011;27613;48.116;11.656;2022-07-10T03:35:17;4.68;;;3.70;;
41923;SDS011;27613;48.116;11.656;2022-07-10T03:37:42;4.55;;;3.80;;
41923;SDS011;27613;48.116;11.656;2022-07-10T03:40:08;6.45;;;4.32;;
41923;SDS011;27613;48.116;11.656;2022-07-10T03:42:34;5.97;;;4.50;;
41923;SDS011;27613;48.116;11.656;2022-07-10T03:45:00;5.00;;;3.90;;
41923;SDS011;27613;48.116;11.656;2022-07-10T03:47:25;4.50;;;3.67;;
41923;SDS011;27613;48.116;11.656;2022-07-10T03:49:51;4.60;;;3.85;;
41923;SDS011;27613;48.116;11.656;2022-07-10T03:52:16;6.18;;;4.03;;
41923;SDS011;27613;48.116;11.656;2022-07-10T03:54:42;4.93;;;3.85;;
41923;SDS011;27613;48.116;11.656;2022-07-10T03:57:07;7.50;;;4.60;;
41923;SDS011;27613;48.116;11.656;2022-07-10T03:59:52;6.95;;;3.95;;
41923;SDS011;27613;48.116;11.656;2022-07-10T04:02:17;5.65;;;4.10;;
41923;SDS011;27613;48.116;11.656;2022-07-10T04:04:43;6.32;;;4.55;;
41923;SDS011;27613;48.116;11.656;2022-07-10T04:07:08;6.63;;;4.45;;
41923;SDS011;27613;48.116;11.656;2022-07-10T04:09:35;4.53;;;4.05;;
41923;SDS011;27613;48.116;11.656;2022-07-10T04:12:01;5.28;;;4.00;;
41923;SDS011;27613;48.116;11.656;2022-07-10T04:14:27;6.93;;;4.80;;
41923;SDS011;27613;48.116;11.656;2022-07-10T04:16:52;5.50;;;3.92;;
41923;SDS011;27613;48.116;11.656;2022-07-10T04:19:18;5.95;;;4.00;;
41923;SDS011;27613;48.116;11.656;2022-07-10T04:21:44;4.38;;;3.65;;
41923;SDS011;27613;48.116;11.656;2022-07-10T04:24:09;7.47;;;4.28;;
41923;SDS011;27613;48.116;11.656;2022-07-10T04:26:35;7.40;;;4.07;;
41923;SDS011;27613;48.116;11.656;2022-07-10T04:29:00;5.65;;;3.80;;
41923;SDS011;27613;48.116;11.656;2022-07-10T04:31:26;6.13;;;4.05;;
41923;SDS011;27613;48.116;11.656;2022-07-10T04:33:51;4.28;;;3.53;;
41923;SDS011;27613;48.116;11.656;2022-07-10T04:36:17;7.13;;;3.90;;
41923;SDS011;27613;48.116;11.656;2022-07-10T04:38:43;5.43;;;3.50;;
41923;SDS011;27613;48.116;11.656;2022-07-10T04:41:08;8.80;;;4.28;;
41923;SDS011;27613;48.116;11.656;2022-07-10T04:43:34;6.00;;;3.75;;
41923;SDS011;27613;48.116;11.656;2022-07-10T04:46:01;4.45;;;3.80;;
41923;SDS011;27613;48.116;11.656;2022-07-10T04:48:27;4.85;;;3.28;;
41923;SDS011;27613;48.116;11.656;2022-07-10T04:50:52;8.55;;;3.30;;
41923;SDS011;27613;48.116;11.656;2022-07-10T04:53:18;6.03;;;3.80;;
41923;SDS011;27613;48.116;11.656;2022-07-10T04:55:43;4.10;;;3.03;;
41923;SDS011;27613;48.116;11.656;2022-07-10T04:58:09;5.15;;;3.45;;
41923;SDS011;27613;48.116;11.656;2022-07-10T05:00:34;5.65;;;3.67;;
41923;SDS011;27613;48.116;11.656;2022-07-10T05:03:00;5.95;;;3.90;;
41923;SDS011;27613;48.116;11.656;2022-07-10T05:05:25;5.35;;;3.67;;
41923;SDS011;27613;48.116;11.656;2022-07-10T05:07:51;5.53;;;3.72;;
41923;SDS011;27613;48.116;11.656;2022-07-10T05:10:17;3.72;;;3.05;;
41923;SDS011;27613;48.116;11.656;2022-07-10T05:12:42;5.40;;;3.65;;
41923;SDS011;27613;48.116;11.656;2022-07-10T05:15:08;7.57;;;3.75;;
41923;SDS011;27613;48.116;11.656;2022-07-10T05:17:34;5.45;;;3.60;;
41923;SDS011;27613;48.116;11.656;2022-07-10T05:19:59;5.60;;;3.83;;
41923;SDS011;27613;48.116;11.656;2022-07-10T05:22:25;7.70;;;3.88;;
41923;SDS011;27613;48.116;11.656;2022-07-10T05:24:51;5.57;;;4.00;;
41923;SDS011;27613;48.116;11.656;2022-07-10T05:27:16;6.85;;;4.18;;
41923;SDS011;27613;48.116;11.656;2022-07-10T05:29:44;4.50;;;3.80;;
41923;SDS011;27613;48.116;11.656;2022-07-10T05:32:10;5.78;;;4.00;;
41923;SDS011;27613;48.116;11.656;2022-07-10T05:34:36;5.00;;;4.38;;
41923;SDS011;27613;48.116;11.656;2022-07-10T05:37:02;5.35;;;4.22;;
41923;SDS011;27613;48.116;11.656;2022-07-10T05:39:27;6.40;;;4.40;;
41923;SDS011;27613;48.116;11.656;2022-07-10T05:41:53;5.10;;;4.30;;
41923;SDS011;27613;48.116;11.656;2022-07-10T05:44:20;5.75;;;4.32;;
41923;SDS011;27613;48.116;11.656;2022-07-10T05:46:46;9.48;;;4.78;;
41923;SDS011;27613;48.116;11.656;2022-07-10T05:49:12;8.93;;;4.88;;
41923;SDS011;27613;48.116;11.656;2022-07-10T05:51:37;6.03;;;4.50;;
41923;SDS011;27613;48.116;11.656;2022-07-10T05:54:03;5.47;;;4.68;;
41923;SDS011;27613;48.116;11.656;2022-07-10T05:56:29;6.00;;;4.72;;
41923;SDS011;27613;48.116;11.656;2022-07-10T05:58:55;6.68;;;4.55;;
41923;SDS011;27613;48.116;11.656;2022-07-10T06:01:22;5.53;;;4.50;;
41923;SDS011;27613;48.116;11.656;2022-07-10T06:03:48;10.65;;;4.63;;
41923;SDS011;27613;48.116;11.656;2022-07-10T06:06:13;6.45;;;4.20;;
41923;SDS011;27613;48.116;11.656;2022-07-10T06:08:42;6.70;;;4.47;;
41923;SDS011;27613;48.116;11.656;2022-07-10T06:11:09;6.13;;;4.45;;
41923;SDS011;27613;48.116;11.656;2022-07-10T06:13:35;6.13;;;5.03;;
41923;SDS011;27613;48.116;11.656;2022-07-10T06:16:01;4.82;;;3.97;;
41923;SDS011;27613;48.116;11.656;2022-07-10T06:18:28;6.35;;;4.07;;
41923;SDS011;27613;48.116;11.656;2022-07-10T06:20:54;5.75;;;4.50;;
41923;SDS011;27613;48.116;11.656;2022-07-10T06:23:20;4.95;;;4.20;;
41923;SDS011;27613;48.116;11.656;2022-07-10T06:25:45;5.78;;;3.83;;
41923;SDS011;27613;48.116;11.656;2022-07-10T06:28:13;5.35;;;3.83;;
41923;SDS011;27613;48.116;11.656;2022-07-10T06:30:39;6.65;;;4.78;;
41923;SDS011;27613;48.116;11.656;2022-07-10T06:33:04;5.65;;;4.10;;
41923;SDS011;27613;48.116;11.656;2022-07-10T06:35:30;6.47;;;4.10;;
41923;SDS011;27613;48.116;11.656;2022-07-10T06:37:55;4.95;;;3.72;;
41923;SDS011;27613;48.116;11.656;2022-07-10T06:40:21;4.85;;;3.80;;
41923;SDS011;27613;48.116;11.656;2022-07-10T06:42:47;5.93;;;4.57;;
41923;SDS011;27613;48.116;11.656;2022-07-10T06:45:12;7.45;;;3.92;;
41923;SDS011;27613;48.116;11.656;2022-07-10T06:47:38;5.25;;;4.10;;
41923;SDS011;27613;48.116;11.656;2022-07-10T06:50:27;7.13;;;3.53;;
41923;SDS011;27613;48.116;11.656;2022-07-10T06:52:57;5.25;;;3.45;;
41923;SDS011;27613;48.116;11.656;2022-07-10T06:55:23;6.40;;;3.72;;
41923;SDS011;27613;48.116;11.656;2022-07-10T06:57:50;5.05;;;3.30;;
41923;SDS011;27613;48.116;11.656;2022-07-10T07:00:16;6.00;;;3.88;;
41923;SDS011;27613;48.116;11.656;2022-07-10T07:02:42;4.25;;;3.53;;
41923;SDS011;27613;48.116;11.656;2022-07-10T07:05:08;5.30;;;3.85;;
41923;SDS011;27613;48.116;11.656;2022-07-10T07:07:34;4.00;;;3.33;;
41923;SDS011;27613;48.116;11.656;2022-07-10T07:10:00;7.00;;;3.92;;
41923;SDS011;27613;48.116;11.656;2022-07-10T07:12:26;4.18;;;3.42;;
41923;SDS011;27613;48.116;11.656;2022-07-10T07:14:52;5.45;;;4.43;;
41923;SDS011;27613;48.116;11.656;2022-07-10T07:17:17;4.65;;;3.67;;
41923;SDS011;27613;48.116;11.656;2022-07-10T07:19:50;6.75;;;4.20;;
41923;SDS011;27613;48.116;11.656;2022-07-10T07:22:35;7.05;;;3.85;;
41923;SDS011;27613;48.116;11.656;2022-07-10T07:25:20;9.55;;;3.80;;
41923;SDS011;27613;48.116;11.656;2022-07-10T07:27:46;4.50;;;3.70;;
41923;SDS011;27613;48.116;11.656;2022-07-10T07:30:12;4.78;;;3.58;;
41923;SDS011;27613;48.116;11.656;2022-07-10T07:32:40;5.07;;;4.15;;
41923;SDS011;27613;48.116;11.656;2022-07-10T07:35:06;4.75;;;4.22;;
41923;SDS011;27613;48.116;11.656;2022-07-10T07:40:02;5.70;;;4.13;;
41923;SDS011;27613;48.116;11.656;2022-07-10T07:42:29;6.78;;;3.60;;
41923;SDS011;27613;48.116;11.656;2022-07-10T07:44:54;6.35;;;3.90;;
41923;SDS011;27613;48.116;11.656;2022-07-10T07:47:20;5.30;;;3.95;;
41923;SDS011;27613;48.116;11.656;2022-07-10T07:49:46;5.35;;;4.18;;
41923;SDS011;27613;48.116;11.656;2022-07-10T07:52:11;7.13;;;3.83;;
41923;SDS011;27613;48.116;11.656;2022-07-10T07:54:37;4.93;;;3.65;;
41923;SDS011;27613;48.116;11.656;2022-07-10T07:57:02;4.53;;;3.28;;
41923;SDS011;27613;48.116;11.656;2022-07-10T07:59:28;5.00;;;3.55;;
41923;SDS011;27613;48.116;11.656;2022-07-10T08:01:54;4.60;;;3.45;;
41923;SDS011;27613;48.116;11.656;2022-07-10T08:04:19;5.38;;;3.42;;
41923;SDS011;27613;48.116;11.656;2022-07-10T08:06:45;6.50;;;2.95;;
41923;SDS011;27613;48.116;11.656;2022-07-10T08:09:11;3.90;;;2.55;;
41923;SDS011;27613;48.116;11.656;2022-07-10T08:11:36;4.43;;;2.40;;
41923;SDS011;27613;48.116;11.656;2022-07-10T08:14:02;7.60;;;2.90;;
41923;SDS011;27613;48.116;11.656;2022-07-10T08:16:27;3.47;;;2.22;;
41923;SDS011;27613;48.116;11.656;2022-07-10T08:18:53;3.78;;;2.33;;
41923;SDS011;27613;48.116;11.656;2022-07-10T08:21:18;3.85;;;2.45;;
41923;SDS011;27613;48.116;11.656;2022-07-10T08:23:44;3.53;;;2.25;;
41923;SDS011;27613;48.116;11.656;2022-07-10T08:26:10;3.42;;;2.20;;
41923;SDS011;27613;48.116;11.656;2022-07-10T08:28:35;4.07;;;2.28;;
41923;SDS011;27613;48.116;11.656;2022-07-10T08:31:01;5.85;;;2.30;;
41923;SDS011;27613;48.116;11.656;2022-07-10T08:33:27;4.90;;;2.17;;
41923;SDS011;27613;48.116;11.656;2022-07-10T08:35:52;6.18;;;1.95;;
41923;SDS011;27613;48.116;11.656;2022-07-10T08:38:23;3.15;;;1.80;;
41923;SDS011;27613;48.116;11.656;2022-07-10T08:40:49;3.33;;;1.90;;
41923;SDS011;27613;48.116;11.656;2022-07-10T08:43:16;2.92;;;1.70;;
41923;SDS011;27613;48.116;11.656;2022-07-10T08:45:41;3.88;;;1.83;;
41923;SDS011;27613;48.116;11.656;2022-07-10T08:48:08;4.65;;;1.98;;
41923;SDS011;27613;48.116;11.656;2022-07-10T08:50:37;4.32;;;2.30;;
41923;SDS011;27613;48.116;11.656;2022-07-10T08:53:16;2.47;;;1.70;;
41923;SDS011;27613;48.116;11.656;2022-07-10T08:55:48;4.70;;;1.90;;
41923;SDS011;27613;48.116;11.656;2022-07-10T08:58:16;3.58;;;1.65;;
41923;SDS011;27613;48.116;11.656;2022-07-10T09:00:44;4.05;;;2.00;;
41923;SDS011;27613;48.116;11.656;2022-07-10T09:03:10;3.40;;;1.95;;
41923;SDS011;27613;48.116;11.656;2022-07-10T09:05:36;4.18;;;1.77;;
41923;SDS011;27613;48.116;11.656;2022-07-10T09:08:01;3.42;;;1.70;;
41923;SDS011;27613;48.116;11.656;2022-07-10T09:10:27;4.43;;;1.98;;
41923;SDS011;27613;48.116;11.656;2022-07-10T09:12:54;3.03;;;1.55;;
41923;SDS011;27613;48.116;11.656;2022-07-10T09:15:25;4.38;;;1.50;;
41923;SDS011;27613;48.116;11.656;2022-07-10T09:17:56;3.67;;;1.65;;
41923;SDS011;27613;48.116;11.656;2022-07-10T09:20:41;4.60;;;1.50;;
41923;SDS011;27613;48.116;11.656;2022-07-10T09:23:18;2.75;;;1.55;;
41923;SDS011;27613;48.116;11.656;2022-07-10T09:25:46;4.38;;;2.00;;
41923;SDS011;27613;48.116;11.656;2022-07-10T09:28:13;3.58;;;1.70;;
41923;SDS011;27613;48.116;11.656;2022-07-10T09:30:41;2.90;;;1.60;;
41923;SDS011;27613;48.116;11.656;2022-07-10T09:33:26;4.32;;;1.50;;
41923;SDS011;27613;48.116;11.656;2022-07-10T09:43:44;1.83;;;1.20;;
41923;SDS011;27613;48.116;11.656;2022-07-10T09:46:10;2.90;;;1.42;;
41923;SDS011;27613;48.116;11.656;2022-07-10T09:48:36;2.25;;;1.40;;
41923;SDS011;27613;48.116;11.656;2022-07-10T09:51:02;2.38;;;1.25;;
41923;SDS011;27613;48.116;11.656;2022-07-10T09:53:31;5.30;;;1.58;;
41923;SDS011;27613;48.116;11.656;2022-07-10T09:55:58;5.85;;;3.20;;
41923;SDS011;27613;48.116;11.656;2022-07-10T09:58:26;7.85;;;2.15;;
41923;SDS011;27613;48.116;11.656;2022-07-10T10:00:56;3.25;;;1.58;;
41923;SDS011;27613;48.116;11.656;2022-07-10T10:03:23;3.28;;;1.48;;
41923;SDS011;27613;48.116;11.656;2022-07-10T10:05:54;7.32;;;1.92;;
41923;SDS011;27613;48.116;11.656;2022-07-10T10:11:20;8.88;;;2.15;;
41923;SDS011;27613;48.116;11.656;2022-07-10T10:13:46;3.08;;;1.40;;
41923;SDS011;27613;48.116;11.656;2022-07-10T10:16:13;4.88;;;1.73;;
41923;SDS011;27613;48.116;11.656;2022-07-10T10:18:39;2.72;;;1.33;;
41923;SDS011;27613;48.116;11.656;2022-07-10T10:21:27;2.45;;;1.23;;
41923;SDS011;27613;48.116;11.656;2022-07-10T10:23:54;1.73;;;0.90;;
41923;SDS011;27613;48.116;11.656;2022-07-10T10:26:23;3.72;;;1.20;;
41923;SDS011;27613;48.116;11.656;2022-07-10T10:28:51;2.50;;;1.42;;
41923;SDS011;27613;48.116;11.656;2022-07-10T10:31:17;3.40;;;1.50;;
41923;SDS011;27613;48.116;11.656;2022-07-10T10:33:45;1.98;;;1.08;;
41923;SDS011;27613;48.116;11.656;2022-07-10T10:36:13;2.47;;;1.15;;
41923;SDS011;27613;48.116;11.656;2022-07-10T10:41:24;3.30;;;1.60;;
41923;SDS011;27613;48.116;11.656;2022-07-10T10:44:27;2.65;;;1.30;;
41923;SDS011;27613;48.116;11.656;2022-07-10T10:49:14;4.22;;;1.58;;
41923;SDS011;27613;48.116;11.656;2022-07-10T10:59:57;3.30;;;1.50;;
41923;SDS011;27613;48.116;11.656;2022-07-10T11:02:31;3.55;;;1.52;;
41923;SDS011;27613;48.116;11.656;2022-07-10T11:07:51;3.45;;;1.63;;
41923;SDS011;27613;48.116;11.656;2022-07-10T11:10:30;3.10;;;1.30;;
41923;SDS011;27613;48.116;11.656;2022-07-10T11:13:09;3.67;;;1.58;;
41923;SDS011;27613;48.116;11.656;2022-07-10T11:15:38;2.80;;;1.08;;
41923;SDS011;27613;48.116;11.656;2022-07-10T11:20:34;4.70;;;1.50;;
41923;SDS011;27613;48.116;11.656;2022-07-10T11:26:12;3.13;;;1.30;;
41923;SDS011;27613;48.116;11.656;2022-07-10T11:33:47;4.25;;;1.38;;
41923;SDS011;27613;48.116;11.656;2022-07-10T11:36:17;3.13;;;1.45;;
41923;SDS011;27613;48.116;11.656;2022-07-10T11:38:45;7.03;;;1.20;;
41923;SDS011;27613;48.116;11.656;2022-07-10T11:41:17;3.38;;;1.45;;
41923;SDS011;27613;48.116;11.656;2022-07-10T11:43:53;3.50;;;1.10;;
41923;SDS011;27613;48.116;11.656;2022-07-10T11:46:23;3.22;;;1.20;;
41923;SDS011;27613;48.116;11.656;2022-07-10T11:48:53;2.70;;;1.27;;
41923;SDS011;27613;48.116;11.656;2022-07-10T11:56:32;3.28;;;1.33;;
41923;SDS011;27613;48.116;11.656;2022-07-10T11:59:00;3.40;;;1.40;;
41923;SDS011;27613;48.116;11.656;2022-07-10T12:01:28;2.65;;;1.10;;
41923;SDS011;27613;48.116;11.656;2022-07-10T12:03:55;2.88;;;1.25;;
41923;SDS011;27613;48.116;11.656;2022-07-10T12:06:22;2.50;;;1.13;;
41923;SDS011;27613;48.116;11.656;2022-07-10T12:08:48;3.78;;;1.30;;
41923;SDS011;27613;48.116;11.656;2022-07-10T12:11:15;3.53;;;1.40;;
41923;SDS011;27613;48.116;11.656;2022-07-10T12:13:42;3.17;;;1.08;;
41923;SDS011;27613;48.116;11.656;2022-07-10T12:16:08;2.28;;;1.02;;
41923;SDS011;27613;48.116;11.656;2022-07-10T12:18:33;3.25;;;1.20;;
41923;SDS011;27613;48.116;11.656;2022-07-10T12:20:59;3.50;;;1.40;;
41923;SDS011;27613;48.116;11.656;2022-07-10T12:23:26;2.22;;;1.13;;
41923;SDS011;27613;48.116;11.656;2022-07-10T12:25:53;2.20;;;1.20;;
41923;SDS011;27613;48.116;11.656;2022-07-10T12:28:21;3.10;;;1.23;;
41923;SDS011;27613;48.116;11.656;2022-07-10T12:30:47;2.30;;;0.95;;
41923;SDS011;27613;48.116;11.656;2022-07-10T12:33:19;2.60;;;1.33;;
41923;SDS011;27613;48.116;11.656;2022-07-10T12:38:23;3.20;;;1.35;;
41923;SDS011;27613;48.116;11.656;2022-07-10T12:41:06;2.70;;;1.35;;
41923;SDS011;27613;48.116;11.656;2022-07-10T12:43:36;2.97;;;1.38;;
41923;SDS011;27613;48.116;11.656;2022-07-10T12:46:09;4.03;;;1.45;;
41923;SDS011;27613;48.116;11.656;2022-07-10T12:48:59;3.22;;;1.17;;
41923;SDS011;27613;48.116;11.656;2022-07-10T12:51:26;6.60;;;1.30;;
41923;SDS011;27613;48.116;11.656;2022-07-10T12:53:54;1.35;;;0.90;;
41923;SDS011;27613;48.116;11.656;2022-07-10T12:58:59;2.95;;;1.20;;
41923;SDS011;27613;48.116;11.656;2022-07-10T13:01:27;2.53;;;1.02;;
41923;SDS011;27613;48.116;11.656;2022-07-10T13:04:00;7.05;;;1.80;;
41923;SDS011;27613;48.116;11.656;2022-07-10T13:06:27;3.40;;;1.38;;
41923;SDS011;27613;48.116;11.656;2022-07-10T13:08:54;4.95;;;1.30;;
41923;SDS011;27613;48.116;11.656;2022-07-10T13:11:19;4.20;;;1.52;;
41923;SDS011;27613;48.116;11.656;2022-07-10T13:13:46;2.22;;;1.17;;
41923;SDS011;27613;48.116;11.656;2022-07-10T13:16:12;13.98;;;1.90;;
41923;SDS011;27613;48.116;11.656;2022-07-10T13:18:37;1.90;;;1.02;;
41923;SDS011;27613;48.116;11.656;2022-07-10T13:21:03;1.65;;;1.00;;
41923;SDS011;27613;48.116;11.656;2022-07-10T13:23:29;2.38;;;0.90;;
41923;SDS011;27613;48.116;11.656;2022-07-10T13:25:55;3.22;;;1.40;;
41923;SDS011;27613;48.116;11.656;2022-07-10T13:28:21;4.05;;;1.23;;
41923;SDS011;27613;48.116;11.656;2022-07-10T13:30:47;2.80;;;0.90;;
41923;SDS011;27613;48.116;11.656;2022-07-10T13:33:13;3.42;;;1.10;;
41923;SDS011;27613;48.116;11.656;2022-07-10T13:35:39;2.80;;;1.20;;
41923;SDS011;27613;48.116;11.656;2022-07-10T13:38:05;2.38;;;1.20;;
41923;SDS011;27613;48.116;11.656;2022-07-10T13:40:32;1.95;;;1.02;;
41923;SDS011;27613;48.116;11.656;2022-07-10T13:42:59;2.35;;;1.02;;
41923;SDS011;27613;48.116;11.656;2022-07-10T13:45:26;5.50;;;1.20;;
41923;SDS011;27613;48.116;11.656;2022-07-10T13:47:57;3.25;;;1.20;;
41923;SDS011;27613;48.116;11.656;2022-07-10T13:50:23;2.65;;;1.20;;
41923;SDS011;27613;48.116;11.656;2022-07-10T13:52:49;2.17;;;0.80;;
41923;SDS011;27613;48.116;11.656;2022-07-10T13:55:15;2.88;;;1.10;;
41923;SDS011;27613;48.116;11.656;2022-07-10T13:57:41;1.48;;;0.93;;
41923;SDS011;27613;48.116;11.656;2022-07-10T14:00:07;2.38;;;1.08;;
41923;SDS011;27613;48.116;11.656;2022-07-10T14:02:33;4.18;;;1.10;;
41923;SDS011;27613;48.116;11.656;2022-07-10T14:05:00;2.45;;;1.02;;
41923;SDS011;27613;48.116;11.656;2022-07-10T14:07:26;3.25;;;1.23;;
41923;SDS011;27613;48.116;11.656;2022-07-10T14:09:51;3.17;;;1.02;;
41923;SDS011;27613;48.116;11.656;2022-07-10T14:12:17;1.70;;;0.90;;
41923;SDS011;27613;48.116;11.656;2022-07-10T14:14:43;2.92;;;0.75;;
41923;SDS011;27613;48.116;11.656;2022-07-10T14:17:08;3.65;;;1.10;;
41923;SDS011;27613;48.116;11.656;2022-07-10T14:19:34;1.50;;;0.70;;
41923;SDS011;27613;48.116;11.656;2022-07-10T14:22:00;1.95;;;1.00;;
41923;SDS011;27613;48.116;11.656;2022-07-10T14:24:26;2.03;;;0.90;;
41923;SDS011;27613;48.116;11.656;2022-07-10T14:26:52;2.40;;;1.00;;
41923;SDS011;27613;48.116;11.656;2022-07-10T14:29:18;2.05;;;0.90;;
41923;SDS011;27613;48.116;11.656;2022-07-10T14:31:44;1.35;;;0.90;;
41923;SDS011;27613;48.116;11.656;2022-07-10T14:34:12;2.45;;;0.80;;
41923;SDS011;27613;48.116;11.656;2022-07-10T14:36:38;2.15;;;1.00;;
41923;SDS011;27613;48.116;11.656;2022-07-10T14:39:04;3.63;;;1.30;;
41923;SDS011;27613;48.116;11.656;2022-07-10T14:41:29;1.67;;;0.80;;
41923;SDS011;27613;48.116;11.656;2022-07-10T14:43:55;5.57;;;1.48;;
41923;SDS011;27613;48.116;11.656;2022-07-10T14:46:21;3.28;;;1.20;;
41923;SDS011;27613;48.116;11.656;2022-07-10T14:48:46;9.00;;;2.22;;
41923;SDS011;27613;48.116;11.656;2022-07-10T14:51:12;3.33;;;1.27;;
41923;SDS011;27613;48.116;11.656;2022-07-10T14:53:38;8.55;;;1.35;;
41923;SDS011;27613;48.116;11.656;2022-07-10T14:56:06;3.72;;;1.10;;
41923;SDS011;27613;48.116;11.656;2022-07-10T14:58:32;5.65;;;1.30;;
41923;SDS011;27613;48.116;11.656;2022-07-10T15:00:58;1.88;;;1.00;;
41923;SDS011;27613;48.116;11.656;2022-07-10T15:03:24;1.95;;;1.00;;
41923;SDS011;27613;48.116;11.656;2022-07-10T15:05:50;2.63;;;1.00;;
41923;SDS011;27613;48.116;11.656;2022-07-10T15:08:20;2.78;;;1.10;;
41923;SDS011;27613;48.116;11.656;2022-07-10T15:10:46;3.95;;;1.13;;
41923;SDS011;27613;48.116;11.656;2022-07-10T15:13:12;2.85;;;1.38;;
41923;SDS011;27613;48.116;11.656;2022-07-10T15:15:38;4.45;;;1.10;;
41923;SDS011;27613;48.116;11.656;2022-07-10T15:18:04;7.43;;;1.20;;
41923;SDS011;27613;48.116;11.656;2022-07-10T15:20:30;1.90;;;0.95;;
41923;SDS011;27613;48.116;11.656;2022-07-10T15:22:55;3.40;;;1.23;;